Time;durP1;ratioP1;P1;durP2;ratioP2;P2;SDS_P1;SDS_P2;PMS_P1;PMS_P2;Temp;Humidity;BMP_temperature;BMP_pressure;BME280_temperature;BME280_humidity;BME280_pressure;Samples;Min_cycle;Max_cycle;Signal;HPM_P1;HPM_P2
2022/11/27 00:00:08;;;;;;;30.15;14.15;;;;;;;;;;5073074;28;20030;-72
2022/11/27 00:02:34;;;;;;;27.65;12.05;;;;;;;;;;5072983;28;20031;-72
2022/11/27 00:05:00;;;;;;;19.17;8.63;;;;;;;;;;5072894;28;20051;-72
2022/11/27 00:07:27;;;;;;;14.80;6.38;;;;;;;;;;5073171;28;20047;-72
2022/11/27 00:09:53;;;;;;;12.77;5.35;;;;;;;;;;5072200;28;20024;-72
2022/11/27 00:12:19;;;;;;;10.32;4.82;;;;;;;;;;5073035;28;20032;-72
2022/11/27 00:14:46;;;;;;;12.55;4.97;;;;;;;;;;5072618;28;20385;-72
2022/11/27 00:17:12;;;;;;;10.90;5.28;;;;;;;;;;5054809;28;20043;-72
2022/11/27 00:19:38;;;;;;;11.80;5.75;;;;;;;;;;5072615;28;20478;-72
2022/11/27 00:22:05;;;;;;;11.45;5.15;;;;;;;;;;5087504;28;20042;-72
2022/11/27 00:24:31;;;;;;;24.10;9.10;;;;;;;;;;5092769;28;20028;-72
2022/11/27 00:26:57;;;;;;;21.00;8.57;;;;;;;;;;5092744;28;20020;-72
2022/11/27 00:29:27;;;;;;;16.48;9.30;;;;;;;;;;5092802;28;20031;-71
2022/11/27 00:31:55;;;;;;;17.17;8.55;;;;;;;;;;5092980;28;20354;-72
2022/11/27 00:34:21;;;;;;;21.60;10.13;;;;;;;;;;5093302;28;20073;-72
2022/11/27 00:36:48;;;;;;;14.65;7.47;;;;;;;;;;5092925;28;20024;-72
2022/11/27 00:39:14;;;;;;;14.52;7.13;;;;;;;;;;5092205;28;20044;-72
2022/11/27 00:41:40;;;;;;;12.35;6.03;;;;;;;;;;5079376;28;20069;-72
2022/11/27 00:44:07;;;;;;;11.32;5.97;;;;;;;;;;5072542;28;20021;-72
2022/11/27 00:46:34;;;;;;;11.23;5.55;;;;;;;;;;5072112;28;20040;-72
2022/11/27 00:49:02;;;;;;;12.85;5.25;;;;;;;;;;5072741;28;20024;-72
2022/11/27 00:51:28;;;;;;;19.83;8.27;;;;;;;;;;5072452;28;20039;-72
2022/11/27 00:53:55;;;;;;;15.65;8.23;;;;;;;;;;5071820;28;20020;-71
2022/11/27 00:56:23;;;;;;;13.85;6.95;;;;;;;;;;5072368;28;20024;-72
2022/11/27 00:58:50;;;;;;;13.93;5.53;;;;;;;;;;5072161;28;20025;-72
2022/11/27 01:01:17;;;;;;;14.60;6.22;;;;;;;;;;5078204;28;20031;-72
2022/11/27 01:03:44;;;;;;;22.00;7.72;;;;;;;;;;5079072;28;20031;-72
2022/11/27 01:06:11;;;;;;;21.33;8.52;;;;;;;;;;5078619;28;20039;-72
2022/11/27 01:08:37;;;;;;;29.50;9.38;;;;;;;;;;5078607;28;20035;-72
2022/11/27 01:11:04;;;;;;;21.05;7.80;;;;;;;;;;5078918;28;20032;-72
2022/11/27 01:13:35;;;;;;;25.83;10.05;;;;;;;;;;5078860;28;20020;-72
2022/11/27 01:16:12;;;;;;;24.38;10.52;;;;;;;;;;5078804;28;20029;-72
2022/11/27 01:18:39;;;;;;;24.02;10.25;;;;;;;;;;5078921;28;20031;-72
2022/11/27 01:21:06;;;;;;;14.40;7.70;;;;;;;;;;5067143;28;20030;-72
2022/11/27 01:23:33;;;;;;;14.43;6.53;;;;;;;;;;5098681;28;20442;-72
2022/11/27 01:26:00;;;;;;;17.48;7.18;;;;;;;;;;5098982;28;20016;-72
2022/11/27 01:28:26;;;;;;;13.57;7.13;;;;;;;;;;5098584;28;20042;-72
2022/11/27 01:30:52;;;;;;;15.02;6.13;;;;;;;;;;5099008;28;20027;-72
2022/11/27 01:33:19;;;;;;;21.80;7.10;;;;;;;;;;5098901;28;20034;-72
2022/11/27 01:35:55;;;;;;;15.65;7.25;;;;;;;;;;5098631;28;20023;-72
2022/11/27 01:38:21;;;;;;;16.80;8.55;;;;;;;;;;5098497;28;20040;-72
2022/11/27 01:40:48;;;;;;;20.52;7.70;;;;;;;;;;5092538;28;20028;-72
2022/11/27 01:43:15;;;;;;;17.67;7.43;;;;;;;;;;5078684;28;20028;-72
2022/11/27 01:45:41;;;;;;;18.63;7.22;;;;;;;;;;5078730;28;20027;-72
2022/11/27 01:48:08;;;;;;;12.98;6.43;;;;;;;;;;5078387;28;20044;-72
2022/11/27 01:50:38;;;;;;;16.70;9.00;;;;;;;;;;5077871;28;20505;-72
2022/11/27 01:53:12;;;;;;;14.60;7.13;;;;;;;;;;5078103;28;20161;-72
2022/11/27 01:55:54;;;;;;;13.85;6.13;;;;;;;;;;5078386;28;20016;-72
2022/11/27 01:58:24;;;;;;;10.73;5.65;;;;;;;;;;5078599;28;20032;-72
2022/11/27 02:00:51;;;;;;;10.45;4.93;;;;;;;;;;5078336;28;20388;-72
2022/11/27 02:03:17;;;;;;;12.77;5.78;;;;;;;;;;5078598;28;20078;-72
2022/11/27 02:05:43;;;;;;;13.45;5.72;;;;;;;;;;5077648;28;20025;-72
2022/11/27 02:08:11;;;;;;;13.82;6.03;;;;;;;;;;5078221;28;20057;-72
2022/11/27 02:10:43;;;;;;;14.32;6.50;;;;;;;;;;5077569;28;20133;-72
2022/11/27 02:13:16;;;;;;;14.50;6.05;;;;;;;;;;5074104;28;20035;-72
2022/11/27 02:15:50;;;;;;;11.70;5.55;;;;;;;;;;5040329;28;20028;-72
2022/11/27 02:18:38;;;;;;;12.35;5.20;;;;;;;;;;5074820;28;20527;-72
2022/11/27 02:21:04;;;;;;;12.68;5.50;;;;;;;;;;5081226;28;20032;-72
2022/11/27 02:23:30;;;;;;;11.88;5.82;;;;;;;;;;5095084;28;20027;-72
2022/11/27 02:25:59;;;;;;;10.38;4.78;;;;;;;;;;5076947;28;20480;-72
2022/11/27 02:28:44;;;;;;;10.48;4.82;;;;;;;;;;5094837;28;20032;-72
2022/11/27 02:31:18;;;;;;;10.52;4.30;;;;;;;;;;5094777;28;20024;-72
2022/11/27 02:33:48;;;;;;;11.63;4.65;;;;;;;;;;5094980;28;20077;-72
2022/11/27 02:36:17;;;;;;;8.73;4.70;;;;;;;;;;5094834;28;20022;-71
2022/11/27 02:38:45;;;;;;;10.23;4.10;;;;;;;;;;5094529;28;20290;-72
2022/11/27 02:41:19;;;;;;;10.80;3.97;;;;;;;;;;5085061;28;20024;-72
2022/11/27 02:43:47;;;;;;;7.40;3.67;;;;;;;;;;5056367;28;20038;-72
2022/11/27 02:46:14;;;;;;;11.85;4.30;;;;;;;;;;5074455;28;20036;-72
2022/11/27 02:48:45;;;;;;;9.82;3.45;;;;;;;;;;5074343;28;20041;-72
2022/11/27 02:51:12;;;;;;;7.85;3.53;;;;;;;;;;5074369;28;20020;-72
2022/11/27 02:53:43;;;;;;;11.30;3.58;;;;;;;;;;5074514;28;20033;-72
2022/11/27 02:56:12;;;;;;;7.57;4.13;;;;;;;;;;5056294;28;20028;-72
2022/11/27 02:58:40;;;;;;;11.65;4.60;;;;;;;;;;5074061;28;20029;-72
2022/11/27 03:01:06;;;;;;;10.57;4.80;;;;;;;;;;5074432;28;20043;-72
2022/11/27 03:03:35;;;;;;;12.45;5.93;;;;;;;;;;5073898;28;20031;-72
2022/11/27 03:06:05;;;;;;;13.95;5.85;;;;;;;;;;5056017;28;20051;-72
2022/11/27 03:08:35;;;;;;;9.98;4.70;;;;;;;;;;5073814;28;20397;-72
2022/11/27 03:11:08;;;;;;;11.70;5.03;;;;;;;;;;5074383;28;20069;-72
2022/11/27 03:13:37;;;;;;;11.25;4.50;;;;;;;;;;5074053;28;20020;-72
2022/11/27 03:16:09;;;;;;;9.55;3.22;;;;;;;;;;5073808;28;20052;-72
2022/11/27 03:18:42;;;;;;;9.77;3.35;;;;;;;;;;5073176;28;20033;-72
2022/11/27 03:21:28;;;;;;;7.60;3.25;;;;;;;;;;5080739;28;20027;-72
2022/11/27 03:23:55;;;;;;;8.32;2.95;;;;;;;;;;5075616;28;20024;-72
2022/11/27 03:26:21;;;;;;;6.80;2.97;;;;;;;;;;5093594;28;20047;-72
2022/11/27 03:28:48;;;;;;;8.15;2.80;;;;;;;;;;5093910;28;20023;-72
2022/11/27 03:31:14;;;;;;;9.20;3.90;;;;;;;;;;5093666;28;20030;-72
2022/11/27 03:33:41;;;;;;;10.20;3.72;;;;;;;;;;5093287;28;20405;-72
2022/11/27 03:36:14;;;;;;;8.27;3.80;;;;;;;;;;5075544;28;20386;-72
2022/11/27 03:38:41;;;;;;;9.68;4.15;;;;;;;;;;5093519;28;20052;-72
2022/11/27 03:41:19;;;;;;;9.35;3.95;;;;;;;;;;5084523;28;20498;-71
2022/11/27 03:44:02;;;;;;;10.60;4.63;;;;;;;;;;5073169;28;20025;-72
2022/11/27 03:46:39;;;;;;;11.18;5.82;;;;;;;;;;5073108;28;20027;-72
2022/11/27 03:49:13;;;;;;;8.73;4.45;;;;;;;;;;5073055;28;20508;-72
2022/11/27 03:51:57;;;;;;;12.38;4.28;;;;;;;;;;5072967;28;20035;-72
2022/11/27 03:54:27;;;;;;;14.85;5.13;;;;;;;;;;5072972;28;20038;-72
2022/11/27 03:56:53;;;;;;;9.20;4.32;;;;;;;;;;5072877;28;20025;-72
2022/11/27 03:59:23;;;;;;;11.57;5.05;;;;;;;;;;5072951;28;20069;-72
2022/11/27 04:01:49;;;;;;;9.05;4.00;;;;;;;;;;5072470;28;20016;-72
2022/11/27 04:04:16;;;;;;;10.93;4.00;;;;;;;;;;5072979;28;20515;-71
2022/11/27 04:06:42;;;;;;;10.40;4.28;;;;;;;;;;5072577;28;20043;-72
2022/11/27 04:09:08;;;;;;;12.60;4.97;;;;;;;;;;5072782;28;20030;-72
2022/11/27 04:11:34;;;;;;;13.10;5.20;;;;;;;;;;5072804;28;20417;-72
2022/11/27 04:14:01;;;;;;;9.45;4.55;;;;;;;;;;5073148;28;20032;-72
2022/11/27 04:16:27;;;;;;;9.88;3.55;;;;;;;;;;5072267;28;20093;-72
2022/11/27 04:18:53;;;;;;;9.40;4.15;;;;;;;;;;5072659;28;20025;-72
2022/11/27 04:21:20;;;;;;;8.43;3.17;;;;;;;;;;5081193;28;20021;-72
2022/11/27 04:23:46;;;;;;;10.90;2.65;;;;;;;;;;5093030;28;20032;-72
2022/11/27 04:26:12;;;;;;;5.63;1.98;;;;;;;;;;5092802;28;20026;-72
2022/11/27 04:28:39;;;;;;;5.65;2.10;;;;;;;;;;5092549;28;20493;-72
2022/11/27 04:31:05;;;;;;;6.13;2.35;;;;;;;;;;5092454;28;20027;-72
2022/11/27 04:33:31;;;;;;;5.28;2.05;;;;;;;;;;5074631;28;20028;-71
2022/11/27 04:35:58;;;;;;;5.55;2.05;;;;;;;;;;5091917;28;20017;-71
2022/11/27 04:38:24;;;;;;;6.63;2.40;;;;;;;;;;5092495;28;20046;-72
2022/11/27 04:40:52;;;;;;;6.55;2.45;;;;;;;;;;5086079;28;20028;-72
2022/11/27 04:43:18;;;;;;;4.63;2.00;;;;;;;;;;5072462;28;20032;-72
2022/11/27 04:45:45;;;;;;;8.93;2.22;;;;;;;;;;5072306;28;20025;-72
2022/11/27 04:48:11;;;;;;;5.78;1.95;;;;;;;;;;5072464;28;20515;-72
2022/11/27 04:50:37;;;;;;;4.85;1.55;;;;;;;;;;5072096;28;20025;-72
2022/11/27 04:53:04;;;;;;;6.30;1.60;;;;;;;;;;5072135;28;20109;-72
2022/11/27 04:55:30;;;;;;;6.18;2.08;;;;;;;;;;5072288;28;20103;-71
2022/11/27 04:57:56;;;;;;;5.38;1.83;;;;;;;;;;5072145;28;20035;-71
2022/11/27 05:00:23;;;;;;;6.80;2.00;;;;;;;;;;5071810;28;20024;-71
2022/11/27 05:02:49;;;;;;;2.97;1.50;;;;;;;;;;5072173;28;20020;-71
2022/11/27 05:05:16;;;;;;;5.60;1.65;;;;;;;;;;5072067;28;20021;-72
2022/11/27 05:07:42;;;;;;;3.00;1.27;;;;;;;;;;5072196;28;20033;-72
2022/11/27 05:10:08;;;;;;;3.50;1.48;;;;;;;;;;5072374;28;20047;-72
2022/11/27 05:12:35;;;;;;;3.85;1.80;;;;;;;;;;5054044;28;20404;-71
2022/11/27 05:15:01;;;;;;;3.65;1.98;;;;;;;;;;5071941;28;20021;-72
2022/11/27 05:17:27;;;;;;;4.57;2.25;;;;;;;;;;5071952;28;20059;-72
2022/11/27 05:19:54;;;;;;;7.45;3.20;;;;;;;;;;5071876;28;20470;-72
2022/11/27 05:22:20;;;;;;;4.35;2.40;;;;;;;;;;5088889;28;20039;-72
2022/11/27 05:24:46;;;;;;;4.47;2.20;;;;;;;;;;5092289;28;20016;-72
2022/11/27 05:27:13;;;;;;;4.18;2.08;;;;;;;;;;5091987;28;20438;-72
2022/11/27 05:29:40;;;;;;;5.00;1.80;;;;;;;;;;5092006;28;20026;-72
2022/11/27 05:32:06;;;;;;;3.75;1.75;;;;;;;;;;5074512;28;20042;-72
2022/11/27 05:34:32;;;;;;;4.68;1.60;;;;;;;;;;5073838;28;20024;-72
2022/11/27 05:36:59;;;;;;;6.68;2.13;;;;;;;;;;5092128;28;20020;-72
2022/11/27 05:39:25;;;;;;;5.97;1.60;;;;;;;;;;5091922;28;20044;-72
2022/11/27 05:41:51;;;;;;;5.03;1.70;;;;;;;;;;5058929;28;20028;-72
2022/11/27 05:44:18;;;;;;;3.60;1.85;;;;;;;;;;5071717;28;20027;-72
2022/11/27 05:46:44;;;;;;;5.82;1.80;;;;;;;;;;5073913;28;20036;-72
2022/11/27 05:49:14;;;;;;;3.85;1.92;;;;;;;;;;5075545;28;20031;-72
2022/11/27 05:51:40;;;;;;;3.08;2.00;;;;;;;;;;5075530;28;20017;-72
2022/11/27 05:54:07;;;;;;;9.15;2.45;;;;;;;;;;5075561;28;20024;-72
2022/11/27 05:56:33;;;;;;;5.65;2.10;;;;;;;;;;5075115;28;20481;-72
2022/11/27 05:58:59;;;;;;;4.15;2.30;;;;;;;;;;5075395;28;20028;-72
2022/11/27 06:01:26;;;;;;;5.63;2.65;;;;;;;;;;5075092;28;20035;-72
2022/11/27 06:03:52;;;;;;;3.22;2.17;;;;;;;;;;5075077;28;20053;-72
2022/11/27 06:06:19;;;;;;;5.85;2.17;;;;;;;;;;5075386;28;20025;-72
2022/11/27 06:08:46;;;;;;;6.95;2.40;;;;;;;;;;5075142;28;20045;-72
2022/11/27 06:11:14;;;;;;;5.85;2.55;;;;;;;;;;5075324;28;20024;-72
2022/11/27 06:13:40;;;;;;;4.90;2.42;;;;;;;;;;5074970;28;20020;-72
2022/11/27 06:16:08;;;;;;;5.45;3.00;;;;;;;;;;5075465;28;20032;-72
2022/11/27 06:18:34;;;;;;;5.30;2.60;;;;;;;;;;5075178;28;20027;-72
2022/11/27 06:21:00;;;;;;;3.65;2.20;;;;;;;;;;5080776;28;20137;-72
2022/11/27 06:23:27;;;;;;;5.10;2.17;;;;;;;;;;5095099;28;20028;-72
2022/11/27 06:25:53;;;;;;;3.47;2.13;;;;;;;;;;5095107;28;20028;-72
2022/11/27 06:28:19;;;;;;;6.93;2.35;;;;;;;;;;5094924;28;20496;-72
2022/11/27 06:30:46;;;;;;;6.78;2.15;;;;;;;;;;5095321;28;20021;-72
2022/11/27 06:33:12;;;;;;;6.03;2.80;;;;;;;;;;5095051;28;20016;-72
2022/11/27 06:35:38;;;;;;;8.07;3.97;;;;;;;;;;5095010;28;20021;-72
2022/11/27 06:38:05;;;;;;;7.72;3.80;;;;;;;;;;5094582;28;20024;-72
2022/11/27 06:40:31;;;;;;;7.00;3.60;;;;;;;;;;5072374;28;20409;-72
2022/11/27 06:42:57;;;;;;;5.63;3.10;;;;;;;;;;5074565;28;20039;-72
2022/11/27 06:45:24;;;;;;;8.23;4.00;;;;;;;;;;5074781;28;20035;-72
2022/11/27 06:47:50;;;;;;;5.82;3.25;;;;;;;;;;5074154;28;20039;-72
2022/11/27 06:50:16;;;;;;;19.65;8.05;;;;;;;;;;5074406;28;20043;-72
2022/11/27 06:52:42;;;;;;;81.95;25.33;;;;;;;;;;5056678;28;20029;-72
2022/11/27 06:55:09;;;;;;;126.72;39.03;;;;;;;;;;5073755;28;20024;-72
2022/11/27 06:57:35;;;;;;;31.27;12.18;;;;;;;;;;5055709;28;20033;-72
2022/11/27 07:00:01;;;;;;;33.53;13.27;;;;;;;;;;5056094;28;20035;-72
2022/11/27 07:02:28;;;;;;;25.70;10.15;;;;;;;;;;5074151;28;20493;-72
2022/11/27 07:04:55;;;;;;;61.15;18.63;;;;;;;;;;5074339;28;20021;-71
2022/11/27 07:07:21;;;;;;;29.13;10.25;;;;;;;;;;5074096;28;20029;-72
2022/11/27 07:09:47;;;;;;;25.30;9.35;;;;;;;;;;5073818;28;20021;-71
2022/11/27 07:12:14;;;;;;;10.13;5.65;;;;;;;;;;5073821;28;20033;-72
2022/11/27 07:14:41;;;;;;;7.63;3.90;;;;;;;;;;5074197;28;20042;-72
2022/11/27 07:17:07;;;;;;;6.40;4.43;;;;;;;;;;5073656;28;20023;-72
2022/11/27 07:19:33;;;;;;;6.60;3.50;;;;;;;;;;5073744;28;20032;-72
2022/11/27 07:22:00;;;;;;;6.53;4.30;;;;;;;;;;5088152;28;20050;-72
2022/11/27 07:24:26;;;;;;;9.02;5.75;;;;;;;;;;5093570;28;20043;-72
2022/11/27 07:26:52;;;;;;;13.18;7.78;;;;;;;;;;5093654;28;20024;-72
2022/11/27 07:29:19;;;;;;;11.88;7.47;;;;;;;;;;5093738;28;20032;-72
2022/11/27 07:31:45;;;;;;;10.88;5.30;;;;;;;;;;5093605;28;20024;-71
2022/11/27 07:34:11;;;;;;;9.40;5.85;;;;;;;;;;5093699;28;20479;-72
2022/11/27 07:36:38;;;;;;;10.82;7.68;;;;;;;;;;5093620;28;20032;-72
2022/11/27 07:39:04;;;;;;;13.30;9.05;;;;;;;;;;5075144;28;20054;-72
2022/11/27 07:41:30;;;;;;;98.25;63.63;;;;;;;;;;5081208;28;20031;-72
2022/11/27 07:43:57;;;;;;;63.38;41.78;;;;;;;;;;5055199;28;20248;-72
2022/11/27 07:46:24;;;;;;;96.07;63.90;;;;;;;;;;5073214;28;20024;-72
2022/11/27 07:48:51;;;;;;;24.25;15.18;;;;;;;;;;5073068;28;20040;-72
2022/11/27 07:51:19;;;;;;;20.58;13.93;;;;;;;;;;5072949;28;20404;-72
2022/11/27 07:53:45;;;;;;;14.57;7.65;;;;;;;;;;5072607;28;20025;-72
2022/11/27 07:56:13;;;;;;;27.55;14.07;;;;;;;;;;5073626;28;20032;-72
2022/11/27 07:58:40;;;;;;;18.45;10.25;;;;;;;;;;5073057;28;20028;-72
2022/11/27 08:01:07;;;;;;;13.25;8.73;;;;;;;;;;5072894;28;20469;-72
2022/11/27 08:03:34;;;;;;;13.32;7.80;;;;;;;;;;5073028;28;20034;-72
2022/11/27 08:06:00;;;;;;;11.48;6.13;;;;;;;;;;5072899;28;20020;-72
2022/11/27 08:08:26;;;;;;;9.13;5.65;;;;;;;;;;5072245;28;20036;-72
2022/11/27 08:10:53;;;;;;;8.57;5.68;;;;;;;;;;5071943;28;20489;-72
2022/11/27 08:13:19;;;;;;;16.02;8.85;;;;;;;;;;5072854;28;20035;-72
2022/11/27 08:15:46;;;;;;;15.60;8.43;;;;;;;;;;5072968;28;20021;-72
2022/11/27 08:18:12;;;;;;;13.25;8.48;;;;;;;;;;5072650;28;20029;-72
2022/11/27 08:20:38;;;;;;;11.68;7.80;;;;;;;;;;5075504;28;20036;-72
2022/11/27 08:23:05;;;;;;;19.50;13.35;;;;;;;;;;5092547;28;20024;-72
2022/11/27 08:25:31;;;;;;;8.48;5.18;;;;;;;;;;5092887;28;20032;-72
2022/11/27 08:27:57;;;;;;;9.07;4.70;;;;;;;;;;5092545;28;20389;-72
2022/11/27 08:30:24;;;;;;;6.20;3.03;;;;;;;;;;5092617;28;20024;-72
2022/11/27 08:32:50;;;;;;;5.60;3.42;;;;;;;;;;5092730;28;20022;-72
2022/11/27 08:35:17;;;;;;;4.85;3.13;;;;;;;;;;5092511;28;20030;-72
2022/11/27 08:37:43;;;;;;;6.30;3.33;;;;;;;;;;5092161;28;20028;-72
2022/11/27 08:40:10;;;;;;;3.63;2.15;;;;;;;;;;5091666;28;20034;-72
2022/11/27 08:42:36;;;;;;;3.97;2.10;;;;;;;;;;5072600;28;20028;-72
2022/11/27 08:45:02;;;;;;;2.03;1.58;;;;;;;;;;5072466;28;20015;-72
2022/11/27 08:47:30;;;;;;;6.45;2.40;;;;;;;;;;5054543;28;20032;-72
2022/11/27 08:49:57;;;;;;;8.38;2.85;;;;;;;;;;5072604;28;20024;-72
2022/11/27 08:52:23;;;;;;;6.45;3.30;;;;;;;;;;5072085;28;20020;-72
2022/11/27 08:54:49;;;;;;;8.85;3.50;;;;;;;;;;5072240;28;20443;-72
2022/11/27 08:57:16;;;;;;;6.35;3.50;;;;;;;;;;5072625;28;20032;-72
2022/11/27 08:59:42;;;;;;;4.82;2.75;;;;;;;;;;5072585;28;20027;-72
2022/11/27 09:02:11;;;;;;;6.28;2.47;;;;;;;;;;5054312;28;20020;-72
2022/11/27 09:04:38;;;;;;;4.25;2.47;;;;;;;;;;5072218;28;20409;-72
2022/11/27 09:07:04;;;;;;;3.53;2.45;;;;;;;;;;5072005;28;20028;-72
2022/11/27 09:09:30;;;;;;;7.28;2.85;;;;;;;;;;5072149;28;20035;-72
2022/11/27 09:11:56;;;;;;;6.55;4.85;;;;;;;;;;5071924;28;20039;-72
2022/11/27 09:14:23;;;;;;;4.70;2.90;;;;;;;;;;5072106;28;20023;-72
2022/11/27 09:16:50;;;;;;;3.10;2.08;;;;;;;;;;5072108;28;20048;-72
2022/11/27 09:19:17;;;;;;;6.10;2.50;;;;;;;;;;5072092;28;20021;-72
2022/11/27 09:21:43;;;;;;;4.35;2.30;;;;;;;;;;5086078;28;20023;-72
2022/11/27 09:24:09;;;;;;;3.70;2.13;;;;;;;;;;5096316;28;20020;-72
2022/11/27 09:26:35;;;;;;;4.28;2.60;;;;;;;;;;5096376;28;20024;-72
2022/11/27 09:29:02;;;;;;;5.28;2.08;;;;;;;;;;5095942;28;20054;-72
2022/11/27 09:31:29;;;;;;;4.80;3.35;;;;;;;;;;5094957;28;20028;-72
2022/11/27 09:33:57;;;;;;;4.95;3.40;;;;;;;;;;5096242;28;20028;-72
2022/11/27 09:36:24;;;;;;;5.38;3.28;;;;;;;;;;5095786;28;20028;-72
2022/11/27 09:38:51;;;;;;;4.10;2.78;;;;;;;;;;5095905;28;20047;-72
2022/11/27 09:41:38;;;;;;;5.30;3.30;;;;;;;;;;5085141;28;20032;-72
2022/11/27 09:44:16;;;;;;;5.50;3.17;;;;;;;;;;5075671;28;20031;-72
2022/11/27 09:46:43;;;;;;;4.78;3.38;;;;;;;;;;5075617;28;20059;-72
2022/11/27 09:49:14;;;;;;;7.38;4.43;;;;;;;;;;5075074;28;20031;-72
2022/11/27 09:51:44;;;;;;;5.53;3.35;;;;;;;;;;5075449;28;20039;-72
2022/11/27 09:54:20;;;;;;;4.30;2.88;;;;;;;;;;5057786;28;20039;-72
2022/11/27 09:56:48;;;;;;;6.30;2.70;;;;;;;;;;5075726;28;20519;-72
2022/11/27 09:59:19;;;;;;;4.95;2.90;;;;;;;;;;5095512;28;20027;-72
2022/11/27 10:01:45;;;;;;;3.67;2.28;;;;;;;;;;5095544;28;20016;-72
2022/11/27 10:04:13;;;;;;;8.52;3.47;;;;;;;;;;5095167;28;20039;-72
2022/11/27 10:06:42;;;;;;;3.47;2.30;;;;;;;;;;5095670;28;20028;-72
2022/11/27 10:09:28;;;;;;;5.10;2.42;;;;;;;;;;5095202;28;20415;-72
2022/11/27 10:12:03;;;;;;;3.55;2.13;;;;;;;;;;5077020;28;20507;-72
2022/11/27 10:14:30;;;;;;;3.38;1.85;;;;;;;;;;5095511;28;20054;-72
2022/11/27 10:17:01;;;;;;;6.38;3.88;;;;;;;;;;5095163;28;20404;-72
2022/11/27 10:19:28;;;;;;;7.03;2.90;;;;;;;;;;5095051;28;20024;-72
2022/11/27 10:22:01;;;;;;;4.68;2.47;;;;;;;;;;5095106;28;20024;-72
2022/11/27 10:24:40;;;;;;;8.40;4.30;;;;;;;;;;5084613;28;20033;-72
2022/11/27 10:27:21;;;;;;;5.70;2.97;;;;;;;;;;5074654;28;20033;-72
2022/11/27 10:29:51;;;;;;;5.32;2.95;;;;;;;;;;5074696;28;20032;-72
2022/11/27 10:32:19;;;;;;;4.13;2.40;;;;;;;;;;5073272;28;20025;-72
2022/11/27 10:34:45;;;;;;;5.13;3.55;;;;;;;;;;5074775;28;20016;-72
2022/11/27 10:37:12;;;;;;;7.35;3.10;;;;;;;;;;5074423;28;20028;-72
2022/11/27 10:39:40;;;;;;;5.07;2.90;;;;;;;;;;5074648;28;20053;-72
2022/11/27 10:42:09;;;;;;;4.03;2.60;;;;;;;;;;5091705;28;20043;-72
2022/11/27 10:44:39;;;;;;;5.47;2.63;;;;;;;;;;5076807;28;20028;-72
2022/11/27 10:47:07;;;;;;;2.85;2.10;;;;;;;;;;5094188;28;20489;-72
2022/11/27 10:49:35;;;;;;;5.07;3.03;;;;;;;;;;5094757;28;20031;-72
2022/11/27 10:52:01;;;;;;;7.40;4.75;;;;;;;;;;5094511;28;20030;-73
2022/11/27 10:54:33;;;;;;;2.72;2.10;;;;;;;;;;5094375;28;20426;-72
2022/11/27 10:57:05;;;;;;;5.13;3.40;;;;;;;;;;5094548;28;20028;-72
2022/11/27 10:59:34;;;;;;;3.67;2.75;;;;;;;;;;5094897;28;20032;-72
2022/11/27 11:02:04;;;;;;;3.33;2.40;;;;;;;;;;5094245;28;20038;-72
2022/11/27 11:04:31;;;;;;;3.97;2.60;;;;;;;;;;5094257;28;20028;-72
2022/11/27 11:06:57;;;;;;;3.55;2.47;;;;;;;;;;5094313;28;20020;-72
2022/11/27 11:09:34;;;;;;;6.60;2.45;;;;;;;;;;5094215;28;20032;-73
2022/11/27 11:12:17;;;;;;;3.65;2.42;;;;;;;;;;5075745;28;20032;-72
2022/11/27 11:14:57;;;;;;;3.13;2.17;;;;;;;;;;5094107;28;20024;-72
2022/11/27 11:17:28;;;;;;;3.00;2.23;;;;;;;;;;5094041;28;20031;-73
2022/11/27 11:19:54;;;;;;;7.30;2.50;;;;;;;;;;5093960;28;20412;-72
2022/11/27 11:22:21;;;;;;;4.88;2.45;;;;;;;;;;5093868;28;20036;-72
2022/11/27 11:24:51;;;;;;;6.88;3.15;;;;;;;;;;5094221;28;20020;-72
2022/11/27 11:27:24;;;;;;;6.10;3.17;;;;;;;;;;5094061;28;20038;-72
2022/11/27 11:29:55;;;;;;;7.78;3.92;;;;;;;;;;5093766;28;20032;-72
2022/11/27 11:32:21;;;;;;;;;;;;;;;;;;5093722;28;20043;-72
2022/11/27 11:34:52;;;;;;;7.43;4.30;;;;;;;;;;5093841;28;19907;-72
2022/11/27 11:37:24;;;;;;;9.45;4.72;;;;;;;;;;5093714;28;20028;-73
2022/11/27 11:39:55;;;;;;;11.07;5.80;;;;;;;;;;5093541;28;20040;-73
2022/11/27 11:42:23;;;;;;;8.45;5.43;;;;;;;;;;5074537;28;20024;-72
2022/11/27 11:44:51;;;;;;;5.15;3.58;;;;;;;;;;5072909;28;20029;-72
2022/11/27 11:47:18;;;;;;;7.50;4.43;;;;;;;;;;5073063;28;20444;-72
2022/11/27 11:49:45;;;;;;;9.45;4.45;;;;;;;;;;5073142;28;20444;-72
2022/11/27 11:52:32;;;;;;;11.02;5.53;;;;;;;;;;5073150;28;20469;-72
2022/11/27 11:55:04;;;;;;;18.75;8.63;;;;;;;;;;5073174;28;20035;-72
2022/11/27 11:57:30;;;;;;;16.23;8.90;;;;;;;;;;5055246;28;20017;-72
2022/11/27 12:00:00;;;;;;;11.20;6.60;;;;;;;;;;5072721;28;20020;-72
2022/11/27 12:02:37;;;;;;;9.23;5.95;;;;;;;;;;5072997;28;20427;-72
2022/11/27 12:05:22;;;;;;;16.70;8.73;;;;;;;;;;5072713;28;20024;-72
2022/11/27 12:07:52;;;;;;;13.50;5.90;;;;;;;;;;5072597;28;20039;-72
2022/11/27 12:10:21;;;;;;;13.88;7.75;;;;;;;;;;5072919;28;20020;-72
2022/11/27 12:13:06;;;;;;;42.70;20.83;;;;;;;;;;5055031;28;20509;-72
2022/11/27 12:15:52;;;;;;;17.42;10.38;;;;;;;;;;5073018;28;20024;-72
2022/11/27 12:18:24;;;;;;;14.23;9.38;;;;;;;;;;5072845;28;20032;-72
2022/11/27 12:20:50;;;;;;;15.07;9.15;;;;;;;;;;5077163;28;20025;-72
2022/11/27 12:23:20;;;;;;;13.25;7.03;;;;;;;;;;5093029;28;20057;-72
2022/11/27 12:25:59;;;;;;;14.57;10.13;;;;;;;;;;5092773;28;20031;-72
2022/11/27 12:28:38;;;;;;;10.60;7.35;;;;;;;;;;5092314;28;20488;-72
2022/11/27 12:31:22;;;;;;;6.57;3.22;;;;;;;;;;5092594;28;20477;-72
2022/11/27 12:34:02;;;;;;;7.50;5.15;;;;;;;;;;5092597;28;20069;-72
2022/11/27 12:36:38;;;;;;;7.75;3.80;;;;;;;;;;5092697;28;20035;-72
2022/11/27 12:39:08;;;;;;;7.18;3.30;;;;;;;;;;5092448;28;20044;-73
2022/11/27 12:41:43;;;;;;;5.07;3.08;;;;;;;;;;5092648;28;20030;-72
2022/11/27 12:44:28;;;;;;;5.05;2.20;;;;;;;;;;5092403;28;20042;-72
2022/11/27 12:46:58;;;;;;;3.83;2.33;;;;;;;;;;5092358;28;20022;-72
2022/11/27 12:49:27;;;;;;;4.60;2.17;;;;;;;;;;5092410;28;20028;-72
2022/11/27 12:51:56;;;;;;;4.68;1.67;;;;;;;;;;5092242;28;20032;-72
2022/11/27 12:54:30;;;;;;;5.07;1.80;;;;;;;;;;5092478;28;20016;-72
2022/11/27 12:56:58;;;;;;;4.65;1.20;;;;;;;;;;5091659;28;20049;-72
2022/11/27 12:59:26;;;;;;;3.22;1.35;;;;;;;;;;5092188;28;20016;-72
2022/11/27 13:02:03;;;;;;;3.03;1.17;;;;;;;;;;5092569;28;20025;-72
2022/11/27 13:04:29;;;;;;;6.75;1.77;;;;;;;;;;5092183;28;20016;-72
2022/11/27 13:07:03;;;;;;;3.63;1.10;;;;;;;;;;5090947;28;20029;-72
2022/11/27 13:09:36;;;;;;;2.15;1.20;;;;;;;;;;5074586;28;20038;-72
2022/11/27 13:12:02;;;;;;;3.55;1.20;;;;;;;;;;5091773;28;20030;-72
2022/11/27 13:14:30;;;;;;;6.25;1.40;;;;;;;;;;5092221;28;20082;-72
2022/11/27 13:17:01;;;;;;;7.95;1.48;;;;;;;;;;5092309;28;20310;-72
2022/11/27 13:19:38;;;;;;;4.00;1.30;;;;;;;;;;5092242;28;20039;-71
2022/11/27 13:22:06;;;;;;;5.78;1.35;;;;;;;;;;5091997;28;20489;-72
2022/11/27 13:24:33;;;;;;;3.20;1.30;;;;;;;;;;5092286;28;20020;-71
2022/11/27 13:27:05;;;;;;;3.03;1.38;;;;;;;;;;5092008;28;20024;-72
2022/11/27 13:29:49;;;;;;;5.15;1.52;;;;;;;;;;5092181;28;20032;-72
2022/11/27 13:32:20;;;;;;;5.90;1.88;;;;;;;;;;5092388;28;20035;-71
2022/11/27 13:34:47;;;;;;;2.95;1.77;;;;;;;;;;5092166;28;20046;-72
2022/11/27 13:37:25;;;;;;;3.90;1.23;;;;;;;;;;5091887;28;20058;-72
2022/11/27 13:39:58;;;;;;;4.30;1.60;;;;;;;;;;5091834;28;20044;-72
2022/11/27 13:42:25;;;;;;;4.18;1.25;;;;;;;;;;5072416;28;20036;-72
2022/11/27 13:45:02;;;;;;;5.25;1.20;;;;;;;;;;5071600;28;20055;-71
2022/11/27 13:47:29;;;;;;;2.92;1.10;;;;;;;;;;5071472;28;20412;-72
2022/11/27 13:50:00;;;;;;;3.17;1.13;;;;;;;;;;5071856;28;20024;-72
2022/11/27 13:52:28;;;;;;;4.32;1.63;;;;;;;;;;5072036;28;20021;-72
2022/11/27 13:54:58;;;;;;;7.95;1.27;;;;;;;;;;5071888;28;20389;-72
2022/11/27 13:57:25;;;;;;;3.92;1.42;;;;;;;;;;5071432;28;20016;-71
2022/11/27 14:00:11;;;;;;;3.22;1.15;;;;;;;;;;5071387;28;20032;-72
2022/11/27 14:02:40;;;;;;;2.53;1.33;;;;;;;;;;5071645;28;20046;-71
2022/11/27 14:05:06;;;;;;;2.95;1.20;;;;;;;;;;5071642;28;20027;-71
2022/11/27 14:07:40;;;;;;;5.53;1.58;;;;;;;;;;5073214;28;20466;-71
2022/11/27 14:10:09;;;;;;;4.70;1.30;;;;;;;;;;5074929;28;20019;-70
2022/11/27 14:12:36;;;;;;;6.20;1.40;;;;;;;;;;5075027;28;20031;-71
2022/11/27 14:15:02;;;;;;;4.88;1.10;;;;;;;;;;5075064;28;20025;-72
2022/11/27 14:17:42;;;;;;;3.05;1.33;;;;;;;;;;5075123;28;20020;-72
2022/11/27 14:20:17;;;;;;;8.50;1.45;;;;;;;;;;5075204;28;20034;-71
2022/11/27 14:22:45;;;;;;;3.42;1.30;;;;;;;;;;5095371;28;20331;-71
2022/11/27 14:25:20;;;;;;;3.03;1.23;;;;;;;;;;5095117;28;20046;-72
2022/11/27 14:27:48;;;;;;;4.97;1.52;;;;;;;;;;5095156;28;20058;-71
2022/11/27 14:30:23;;;;;;;6.50;1.20;;;;;;;;;;5094977;28;20023;-71
2022/11/27 14:32:49;;;;;;;4.88;1.25;;;;;;;;;;5095198;28;20028;-71
2022/11/27 14:35:20;;;;;;;4.38;1.13;;;;;;;;;;5094880;28;20020;-72
2022/11/27 14:37:46;;;;;;;3.22;1.20;;;;;;;;;;5094934;28;20024;-71
2022/11/27 14:40:24;;;;;;;3.45;1.27;;;;;;;;;;5094349;28;20042;-71
2022/11/27 14:42:51;;;;;;;3.67;1.35;;;;;;;;;;5095208;28;20020;-71
2022/11/27 14:45:19;;;;;;;3.33;1.10;;;;;;;;;;5094472;28;20031;-72
2022/11/27 14:47:50;;;;;;;4.53;1.10;;;;;;;;;;5094472;28;20619;-72